sensor_id;sensor_type;location;lat;lon;timestamp;pressure;altitude;pressure_sealevel;temperature;humidity
56811;BME280;42691;47.234;27.494;2022-08-11T00:00:39;99963.84;;;18.38;100.00
56811;BME280;42691;47.234;27.494;2022-08-11T00:03:09;99969.81;;;18.29;100.00
56811;BME280;42691;47.234;27.494;2022-08-11T00:05:47;99963.44;;;18.21;100.00
56811;BME280;42691;47.234;27.494;2022-08-11T00:08:28;99958.81;;;18.24;100.00
56811;BME280;42691;47.234;27.494;2022-08-11T00:11:06;99959.25;;;18.18;100.00
56811;BME280;42691;47.234;27.494;2022-08-11T00:13:35;99955.88;;;18.16;100.00
56811;BME280;42691;47.234;27.494;2022-08-11T00:16:02;99955.00;;;18.04;100.00
56811;BME280;42691;47.234;27.494;2022-08-11T00:18:37;99963.91;;;18.15;100.00
56811;BME280;42691;47.234;27.494;2022-08-11T00:21:04;99957.66;;;18.04;100.00
56811;BME280;42691;47.234;27.494;2022-08-11T00:23:30;99958.38;;;18.06;100.00
56811;BME280;42691;47.234;27.494;2022-08-11T00:25:56;99951.31;;;18.07;100.00
56811;BME280;42691;47.234;27.494;2022-08-11T00:28:23;99955.72;;;17.95;100.00
56811;BME280;42691;47.234;27.494;2022-08-11T00:30:50;99947.81;;;17.95;100.00
56811;BME280;42691;47.234;27.494;2022-08-11T00:33:17;99945.22;;;18.06;100.00
56811;BME280;42691;47.234;27.494;2022-08-11T00:35:44;99942.31;;;17.98;100.00
56811;BME280;42691;47.234;27.494;2022-08-11T00:38:12;99938.72;;;17.99;100.00
56811;BME280;42691;47.234;27.494;2022-08-11T00:40:44;99950.72;;;18.03;100.00
56811;BME280;42691;47.234;27.494;2022-08-11T00:43:23;99956.50;;;17.85;100.00
56811;BME280;42691;47.234;27.494;2022-08-11T01:00:20;99975.69;;;17.74;100.00
56811;BME280;42691;47.234;27.494;2022-08-11T01:03:20;99971.75;;;17.56;100.00
56811;BME280;42691;47.234;27.494;2022-08-11T01:14:45;99967.66;;;17.52;100.00
56811;BME280;42691;47.234;27.494;2022-08-11T01:20:30;99967.78;;;17.50;100.00
56811;BME280;42691;47.234;27.494;2022-08-11T01:34:41;99958.50;;;17.44;100.00
56811;BME280;42691;47.234;27.494;2022-08-11T01:37:37;99960.72;;;17.50;100.00
56811;BME280;42691;47.234;27.494;2022-08-11T01:40:37;99949.72;;;17.33;100.00
56811;BME280;42691;47.234;27.494;2022-08-11T01:43:22;99948.66;;;17.35;100.00
56811;BME280;42691;47.234;27.494;2022-08-11T01:46:24;99950.00;;;17.41;100.00
56811;BME280;42691;47.234;27.494;2022-08-11T01:52:22;99942.53;;;17.11;100.00
56811;BME280;42691;47.234;27.494;2022-08-11T01:55:15;99942.59;;;17.22;100.00
56811;BME280;42691;47.234;27.494;2022-08-11T02:00:48;99938.53;;;17.05;100.00
56811;BME280;42691;47.234;27.494;2022-08-11T02:03:33;99941.88;;;17.20;100.00
56811;BME280;42691;47.234;27.494;2022-08-11T02:06:09;99934.00;;;17.20;100.00
56811;BME280;42691;47.234;27.494;2022-08-11T02:12:50;99940.41;;;17.16;100.00
56811;BME280;42691;47.234;27.494;2022-08-11T02:15:37;99945.47;;;17.19;100.00
56811;BME280;42691;47.234;27.494;2022-08-11T02:18:31;99950.94;;;17.16;100.00
56811;BME280;42691;47.234;27.494;2022-08-11T02:21:25;99955.34;;;17.03;100.00
56811;BME280;42691;47.234;27.494;2022-08-11T02:24:15;99960.94;;;17.11;100.00
56811;BME280;42691;47.234;27.494;2022-08-11T02:26:59;99948.53;;;17.13;100.00
56811;BME280;42691;47.234;27.494;2022-08-11T02:29:36;99952.75;;;16.90;100.00
56811;BME280;42691;47.234;27.494;2022-08-11T02:32:19;99954.53;;;16.90;100.00
56811;BME280;42691;47.234;27.494;2022-08-11T02:35:28;99956.13;;;16.92;100.00
56811;BME280;42691;47.234;27.494;2022-08-11T02:52:40;99969.16;;;16.81;100.00
56811;BME280;42691;47.234;27.494;2022-08-11T02:55:13;99985.13;;;16.91;100.00
56811;BME280;42691;47.234;27.494;2022-08-11T02:57:50;99971.03;;;16.66;100.00
56811;BME280;42691;47.234;27.494;2022-08-11T03:00:18;99977.16;;;16.79;100.00
56811;BME280;42691;47.234;27.494;2022-08-11T03:03:23;99974.09;;;16.85;100.00
56811;BME280;42691;47.234;27.494;2022-08-11T03:06:11;99975.69;;;16.75;100.00
56811;BME280;42691;47.234;27.494;2022-08-11T03:11:55;99977.91;;;16.81;100.00
56811;BME280;42691;47.234;27.494;2022-08-11T03:15:24;99970.44;;;16.75;100.00
56811;BME280;42691;47.234;27.494;2022-08-11T03:18:36;99971.91;;;16.79;100.00
56811;BME280;42691;47.234;27.494;2022-08-11T03:26:31;99970.63;;;16.72;100.00
56811;BME280;42691;47.234;27.494;2022-08-11T03:29:19;99958.94;;;16.64;100.00
56811;BME280;42691;47.234;27.494;2022-08-11T03:34:22;99974.31;;;16.82;100.00
56811;BME280;42691;47.234;27.494;2022-08-11T03:37:10;99968.09;;;16.96;100.00
56811;BME280;42691;47.234;27.494;2022-08-11T03:40:37;99970.44;;;16.75;100.00
56811;BME280;42691;47.234;27.494;2022-08-11T03:43:58;99975.47;;;16.78;100.00
56811;BME280;42691;47.234;27.494;2022-08-11T03:46:35;99974.09;;;16.85;100.00
56811;BME280;42691;47.234;27.494;2022-08-11T03:52:15;99959.72;;;16.78;100.00
56811;BME280;42691;47.234;27.494;2022-08-11T03:54:59;99981.34;;;16.95;100.00
56811;BME280;42691;47.234;27.494;2022-08-11T04:29:59;99976.13;;;19.94;100.00
56811;BME280;42691;47.234;27.494;2022-08-11T04:46:47;99955.28;;;19.37;100.00
56811;BME280;42691;47.234;27.494;2022-08-11T05:04:55;99939.31;;;21.16;100.00
56811;BME280;42691;47.234;27.494;2022-08-11T05:15:52;99944.72;;;22.52;100.00
56811;BME280;42691;47.234;27.494;2022-08-11T05:18:49;99954.16;;;22.64;100.00
56811;BME280;42691;47.234;27.494;2022-08-11T05:21:35;99948.84;;;22.73;100.00
56811;BME280;42691;47.234;27.494;2022-08-11T05:27:32;99943.63;;;23.19;100.00
56811;BME280;42691;47.234;27.494;2022-08-11T05:30:19;99939.63;;;23.15;100.00
56811;BME280;42691;47.234;27.494;2022-08-11T05:33:14;99947.88;;;23.12;100.00
56811;BME280;42691;47.234;27.494;2022-08-11T05:37:07;99953.34;;;22.54;100.00
56811;BME280;42691;47.234;27.494;2022-08-11T05:39:03;99954.97;;;22.84;100.00
56811;BME280;42691;47.234;27.494;2022-08-11T05:41:50;99954.44;;;23.35;100.00
56811;BME280;42691;47.234;27.494;2022-08-11T05:44:44;99950.03;;;23.26;100.00
56811;BME280;42691;47.234;27.494;2022-08-11T05:47:29;99948.75;;;23.75;100.00
56811;BME280;42691;47.234;27.494;2022-08-11T05:50:14;99952.66;;;23.53;100.00
56811;BME280;42691;47.234;27.494;2022-08-11T05:53:02;99950.00;;;23.81;100.00
56811;BME280;42691;47.234;27.494;2022-08-11T05:55:48;99945.19;;;23.39;100.00
56811;BME280;42691;47.234;27.494;2022-08-11T05:58:36;99949.19;;;23.70;100.00
56811;BME280;42691;47.234;27.494;2022-08-11T06:01:03;99951.66;;;23.82;100.00
56811;BME280;42691;47.234;27.494;2022-08-11T06:03:30;99933.97;;;23.90;100.00
56811;BME280;42691;47.234;27.494;2022-08-11T06:05:57;99926.28;;;23.69;100.00
56811;BME280;42691;47.234;27.494;2022-08-11T06:08:28;99948.97;;;23.99;100.00
56811;BME280;42691;47.234;27.494;2022-08-11T06:10:59;99943.56;;;24.09;100.00
56811;BME280;42691;47.234;27.494;2022-08-11T06:13:26;99941.75;;;24.27;100.00
56811;BME280;42691;47.234;27.494;2022-08-11T06:15:52;99934.25;;;24.49;100.00
56811;BME280;42691;47.234;27.494;2022-08-11T06:18:20;99934.16;;;24.33;100.00
56811;BME280;42691;47.234;27.494;2022-08-11T06:20:55;99936.66;;;24.60;100.00
56811;BME280;42691;47.234;27.494;2022-08-11T06:23:24;99937.72;;;24.75;100.00
56811;BME280;42691;47.234;27.494;2022-08-11T06:25:53;99928.00;;;24.58;100.00
56811;BME280;42691;47.234;27.494;2022-08-11T06:28:28;99928.41;;;24.71;100.00
56811;BME280;42691;47.234;27.494;2022-08-11T06:30:55;99904.75;;;24.60;100.00
56811;BME280;42691;47.234;27.494;2022-08-11T06:33:37;99920.09;;;25.00;100.00
56811;BME280;42691;47.234;27.494;2022-08-11T06:36:16;99914.09;;;24.98;100.00
56811;BME280;42691;47.234;27.494;2022-08-11T06:41:39;99897.16;;;25.07;100.00
56811;BME280;42691;47.234;27.494;2022-08-11T06:46:40;99912.75;;;25.44;100.00
56811;BME280;42691;47.234;27.494;2022-08-11T06:49:08;99912.41;;;25.47;100.00
56811;BME280;42691;47.234;27.494;2022-08-11T06:52:12;99910.06;;;25.36;100.00
56811;BME280;42691;47.234;27.494;2022-08-11T06:54:51;99916.50;;;25.25;100.00
56811;BME280;42691;47.234;27.494;2022-08-11T06:57:21;99904.41;;;25.47;100.00
56811;BME280;42691;47.234;27.494;2022-08-11T07:00:06;99917.06;;;25.45;100.00
56811;BME280;42691;47.234;27.494;2022-08-11T07:02:52;99913.69;;;25.27;100.00
56811;BME280;42691;47.234;27.494;2022-08-11T07:05:26;99902.66;;;25.14;100.00
56811;BME280;42691;47.234;27.494;2022-08-11T07:14:22;99918.44;;;25.66;100.00
56811;BME280;42691;47.234;27.494;2022-08-11T07:17:21;99914.88;;;25.33;100.00
56811;BME280;42691;47.234;27.494;2022-08-11T07:19:52;99903.09;;;25.60;100.00
56811;BME280;42691;47.234;27.494;2022-08-11T07:22:37;99911.78;;;25.03;100.00
56811;BME280;42691;47.234;27.494;2022-08-11T07:25:23;99900.75;;;25.40;100.00
56811;BME280;42691;47.234;27.494;2022-08-11T07:28:17;99906.25;;;25.39;100.00
56811;BME280;42691;47.234;27.494;2022-08-11T07:31:06;99896.56;;;25.30;100.00
56811;BME280;42691;47.234;27.494;2022-08-11T07:33:52;99905.91;;;25.42;100.00
56811;BME280;42691;47.234;27.494;2022-08-11T07:36:24;99901.75;;;25.39;100.00
56811;BME280;42691;47.234;27.494;2022-08-11T07:38:54;99906.41;;;25.45;100.00
56811;BME280;42691;47.234;27.494;2022-08-11T07:41:24;99900.91;;;25.31;100.00
56811;BME280;42691;47.234;27.494;2022-08-11T07:43:56;99901.94;;;25.54;100.00
56811;BME280;42691;47.234;27.494;2022-08-11T07:46:35;99900.84;;;25.22;100.00
56811;BME280;42691;47.234;27.494;2022-08-11T07:49:22;99907.16;;;25.13;100.00
56811;BME280;42691;47.234;27.494;2022-08-11T07:52:07;99914.16;;;25.14;100.00
56811;BME280;42691;47.234;27.494;2022-08-11T07:54:52;99909.34;;;25.18;100.00
56811;BME280;42691;47.234;27.494;2022-08-11T07:57:19;99904.97;;;25.09;100.00
56811;BME280;42691;47.234;27.494;2022-08-11T08:00:04;99914.47;;;25.11;100.00
56811;BME280;42691;47.234;27.494;2022-08-11T08:02:48;99912.13;;;25.00;100.00
56811;BME280;42691;47.234;27.494;2022-08-11T08:05:33;99895.34;;;25.16;100.00
56811;BME280;42691;47.234;27.494;2022-08-11T08:08:18;99907.63;;;25.01;100.00
56811;BME280;42691;47.234;27.494;2022-08-11T08:11:03;99909.81;;;25.05;100.00
56811;BME280;42691;47.234;27.494;2022-08-11T08:13:48;99905.16;;;25.07;100.00
56811;BME280;42691;47.234;27.494;2022-08-11T08:16:32;99899.31;;;25.04;100.00
56811;BME280;42691;47.234;27.494;2022-08-11T08:19:19;99899.84;;;25.15;100.00
56811;BME280;42691;47.234;27.494;2022-08-11T08:21:46;99897.69;;;25.19;100.00
56811;BME280;42691;47.234;27.494;2022-08-11T08:24:12;99897.00;;;25.09;100.00
56811;BME280;42691;47.234;27.494;2022-08-11T08:26:39;99892.19;;;25.20;100.00
56811;BME280;42691;47.234;27.494;2022-08-11T08:29:30;99877.84;;;25.05;100.00
56811;BME280;42691;47.234;27.494;2022-08-11T08:32:16;99882.06;;;25.24;100.00
56811;BME280;42691;47.234;27.494;2022-08-11T08:34:43;99897.19;;;25.23;100.00
56811;BME280;42691;47.234;27.494;2022-08-11T08:37:09;99903.09;;;25.43;100.00
56811;BME280;42691;47.234;27.494;2022-08-11T08:39:35;99905.81;;;25.68;100.00
56811;BME280;42691;47.234;27.494;2022-08-11T08:42:12;99889.72;;;25.27;100.00
56811;BME280;42691;47.234;27.494;2022-08-11T08:44:44;99889.34;;;25.06;100.00
56811;BME280;42691;47.234;27.494;2022-08-11T08:47:14;99885.72;;;24.81;100.00
56811;BME280;42691;47.234;27.494;2022-08-11T08:49:50;99904.13;;;25.00;100.00
56811;BME280;42691;47.234;27.494;2022-08-11T08:52:22;99882.84;;;24.74;100.00
56811;BME280;42691;47.234;27.494;2022-08-11T08:54:56;99891.03;;;24.81;100.00
56811;BME280;42691;47.234;27.494;2022-08-11T08:57:22;99880.91;;;24.84;100.00
56811;BME280;42691;47.234;27.494;2022-08-11T08:59:49;99890.34;;;25.05;100.00
56811;BME280;42691;47.234;27.494;2022-08-11T09:02:17;99882.03;;;25.08;100.00
56811;BME280;42691;47.234;27.494;2022-08-11T09:04:45;99869.19;;;24.61;100.00
56811;BME280;42691;47.234;27.494;2022-08-11T09:07:14;99875.69;;;25.01;100.00
56811;BME280;42691;47.234;27.494;2022-08-11T09:09:46;99873.75;;;25.27;100.00
56811;BME280;42691;47.234;27.494;2022-08-11T09:12:12;99872.97;;;25.51;100.00
56811;BME280;42691;47.234;27.494;2022-08-11T09:14:41;99872.78;;;25.61;100.00
56811;BME280;42691;47.234;27.494;2022-08-11T09:17:30;99863.47;;;25.48;100.00
56811;BME280;42691;47.234;27.494;2022-08-11T09:20:00;99865.97;;;25.42;100.00
56811;BME280;42691;47.234;27.494;2022-08-11T09:22:28;99863.47;;;25.56;100.00
56811;BME280;42691;47.234;27.494;2022-08-11T09:25:14;99855.63;;;25.31;100.00
56811;BME280;42691;47.234;27.494;2022-08-11T09:27:59;99861.53;;;25.67;100.00
56811;BME280;42691;47.234;27.494;2022-08-11T09:30:26;99854.16;;;25.52;100.00
56811;BME280;42691;47.234;27.494;2022-08-11T09:32:54;99852.53;;;25.68;100.00
56811;BME280;42691;47.234;27.494;2022-08-11T09:35:33;99837.69;;;25.90;100.00
56811;BME280;42691;47.234;27.494;2022-08-11T09:38:03;99851.94;;;25.23;100.00
56811;BME280;42691;47.234;27.494;2022-08-11T09:40:48;99857.13;;;25.33;100.00
56811;BME280;42691;47.234;27.494;2022-08-11T09:43:17;99854.13;;;25.28;100.00
56811;BME280;42691;47.234;27.494;2022-08-11T09:46:03;99856.41;;;25.15;100.00
56811;BME280;42691;47.234;27.494;2022-08-11T09:48:38;99845.16;;;25.53;100.00
56811;BME280;42691;47.234;27.494;2022-08-11T09:51:06;99851.16;;;25.39;100.00
56811;BME280;42691;47.234;27.494;2022-08-11T09:53:36;99843.28;;;25.13;100.00
56811;BME280;42691;47.234;27.494;2022-08-11T09:56:03;99841.16;;;25.41;100.00
56811;BME280;42691;47.234;27.494;2022-08-11T09:58:49;99844.78;;;25.24;100.00
56811;BME280;42691;47.234;27.494;2022-08-11T10:01:16;99831.44;;;25.08;100.00
56811;BME280;42691;47.234;27.494;2022-08-11T10:03:59;99837.44;;;25.18;100.00
56811;BME280;42691;47.234;27.494;2022-08-11T10:06:27;99843.09;;;25.07;100.00
56811;BME280;42691;47.234;27.494;2022-08-11T10:09:17;99845.81;;;25.31;100.00
56811;BME280;42691;47.234;27.494;2022-08-11T10:11:44;99828.50;;;25.51;100.00
56811;BME280;42691;47.234;27.494;2022-08-11T10:14:10;99836.44;;;25.19;100.00
56811;BME280;42691;47.234;27.494;2022-08-11T10:16:55;99840.66;;;25.30;100.00
56811;BME280;42691;47.234;27.494;2022-08-11T10:19:21;99840.13;;;25.26;100.00
56811;BME280;42691;47.234;27.494;2022-08-11T10:21:51;99845.44;;;25.18;100.00
56811;BME280;42691;47.234;27.494;2022-08-11T10:24:37;99842.31;;;25.39;100.00
56811;BME280;42691;47.234;27.494;2022-08-11T10:27:22;99841.16;;;25.49;100.00
56811;BME280;42691;47.234;27.494;2022-08-11T10:29:48;99836.84;;;25.48;100.00
56811;BME280;42691;47.234;27.494;2022-08-11T10:32:34;99843.16;;;25.55;100.00
56811;BME280;42691;47.234;27.494;2022-08-11T10:35:20;99845.78;;;25.23;100.00
56811;BME280;42691;47.234;27.494;2022-08-11T10:37:47;99840.16;;;25.34;100.00
56811;BME280;42691;47.234;27.494;2022-08-11T10:40:15;99843.50;;;25.44;100.00
56811;BME280;42691;47.234;27.494;2022-08-11T10:42:42;99836.50;;;25.35;100.00
56811;BME280;42691;47.234;27.494;2022-08-11T10:45:29;99849.81;;;25.60;100.00
56811;BME280;42691;47.234;27.494;2022-08-11T10:48:14;99834.88;;;25.83;100.00
56811;BME280;42691;47.234;27.494;2022-08-11T10:50:45;99837.38;;;25.68;100.00
56811;BME280;42691;47.234;27.494;2022-08-11T10:53:30;99827.50;;;26.01;100.00
56811;BME280;42691;47.234;27.494;2022-08-11T10:56:16;99839.78;;;26.27;100.00
56811;BME280;42691;47.234;27.494;2022-08-11T10:59:01;99826.03;;;25.91;100.00
56811;BME280;42691;47.234;27.494;2022-08-11T11:01:37;99831.84;;;25.62;100.00
56811;BME280;42691;47.234;27.494;2022-08-11T11:04:07;99833.34;;;25.56;100.00
56811;BME280;42691;47.234;27.494;2022-08-11T11:06:57;99826.50;;;25.62;100.00
56811;BME280;42691;47.234;27.494;2022-08-11T11:09:40;99832.34;;;25.90;100.00
56811;BME280;42691;47.234;27.494;2022-08-11T11:12:12;99828.50;;;25.60;100.00
56811;BME280;42691;47.234;27.494;2022-08-11T11:15:00;99823.50;;;25.48;100.00
56811;BME280;42691;47.234;27.494;2022-08-11T11:17:54;99819.41;;;25.70;100.00
56811;BME280;42691;47.234;27.494;2022-08-11T11:20:25;99815.50;;;25.97;100.00
56811;BME280;42691;47.234;27.494;2022-08-11T11:22:54;99810.50;;;25.62;100.00
56811;BME280;42691;47.234;27.494;2022-08-11T11:25:45;99818.19;;;25.48;100.00
56811;BME280;42691;47.234;27.494;2022-08-11T11:34:03;99812.84;;;26.05;100.00
56811;BME280;42691;47.234;27.494;2022-08-11T11:36:57;99811.34;;;25.95;100.00
56811;BME280;42691;47.234;27.494;2022-08-11T11:39:30;99802.22;;;25.81;100.00
56811;BME280;42691;47.234;27.494;2022-08-11T11:42:00;99802.03;;;25.42;100.00
56811;BME280;42691;47.234;27.494;2022-08-11T11:44:28;99803.22;;;25.80;100.00
56811;BME280;42691;47.234;27.494;2022-08-11T11:46:55;99803.84;;;26.06;100.00
56811;BME280;42691;47.234;27.494;2022-08-11T11:49:24;99796.47;;;26.25;100.00
56811;BME280;42691;47.234;27.494;2022-08-11T11:51:52;99777.84;;;26.08;100.00
56811;BME280;42691;47.234;27.494;2022-08-11T11:54:24;99783.53;;;26.05;100.00
56811;BME280;42691;47.234;27.494;2022-08-11T11:56:52;99786.53;;;26.02;100.00
56811;BME280;42691;47.234;27.494;2022-08-11T11:59:24;99803.50;;;26.09;100.00
56811;BME280;42691;47.234;27.494;2022-08-11T12:02:10;99785.03;;;26.08;100.00
56811;BME280;42691;47.234;27.494;2022-08-11T12:04:41;99797.78;;;26.29;100.00
56811;BME280;42691;47.234;27.494;2022-08-11T12:07:10;99782.16;;;26.17;100.00
56811;BME280;42691;47.234;27.494;2022-08-11T12:09:56;99795.28;;;26.35;100.00
56811;BME280;42691;47.234;27.494;2022-08-11T12:12:24;99787.44;;;26.42;100.00
56811;BME280;42691;47.234;27.494;2022-08-11T12:15:08;99784.78;;;26.34;100.00
56811;BME280;42691;47.234;27.494;2022-08-11T12:17:35;99792.09;;;26.48;100.00
56811;BME280;42691;47.234;27.494;2022-08-11T12:20:03;99794.28;;;26.36;100.00
56811;BME280;42691;47.234;27.494;2022-08-11T12:22:30;99781.06;;;26.51;100.00
56811;BME280;42691;47.234;27.494;2022-08-11T12:25:14;99788.31;;;26.65;100.00
56811;BME280;42691;47.234;27.494;2022-08-11T12:28:03;99783.03;;;26.57;100.00
56811;BME280;42691;47.234;27.494;2022-08-11T12:30:29;99771.59;;;26.71;100.00
56811;BME280;42691;47.234;27.494;2022-08-11T12:32:56;99774.25;;;26.79;100.00
56811;BME280;42691;47.234;27.494;2022-08-11T12:35:21;99774.94;;;26.73;100.00
56811;BME280;42691;47.234;27.494;2022-08-11T12:37:51;99776.78;;;26.26;100.00
56811;BME280;42691;47.234;27.494;2022-08-11T12:40:23;99765.88;;;25.96;100.00
56811;BME280;42691;47.234;27.494;2022-08-11T12:43:13;99761.81;;;26.16;100.00
56811;BME280;42691;47.234;27.494;2022-08-11T12:46:01;99762.09;;;26.38;100.00
56811;BME280;42691;47.234;27.494;2022-08-11T12:48:32;99767.47;;;26.22;100.00
56811;BME280;42691;47.234;27.494;2022-08-11T12:51:23;99769.44;;;26.36;100.00
56811;BME280;42691;47.234;27.494;2022-08-11T12:54:14;99770.81;;;26.15;100.00
56811;BME280;42691;47.234;27.494;2022-08-11T12:56:47;99770.25;;;26.44;100.00
56811;BME280;42691;47.234;27.494;2022-08-11T12:59:32;99757.00;;;26.59;100.00
56811;BME280;42691;47.234;27.494;2022-08-11T13:02:20;99751.75;;;26.43;100.00
56811;BME280;42691;47.234;27.494;2022-08-11T13:05:07;99756.56;;;26.47;100.00
56811;BME280;42691;47.234;27.494;2022-08-11T13:07:33;99757.88;;;26.52;100.00
56811;BME280;42691;47.234;27.494;2022-08-11T13:10:04;99763.13;;;26.21;100.00
56811;BME280;42691;47.234;27.494;2022-08-11T13:12:31;99765.44;;;26.32;100.00
56811;BME280;42691;47.234;27.494;2022-08-11T13:15:19;99751.78;;;26.27;100.00
56811;BME280;42691;47.234;27.494;2022-08-11T13:17:48;99758.47;;;26.23;100.00
56811;BME280;42691;47.234;27.494;2022-08-11T13:20:18;99746.97;;;26.22;100.00
56811;BME280;42691;47.234;27.494;2022-08-11T13:22:48;99755.38;;;26.03;100.00
56811;BME280;42691;47.234;27.494;2022-08-11T13:25:20;99747.34;;;26.11;100.00
56811;BME280;42691;47.234;27.494;2022-08-11T13:27:48;99747.38;;;26.03;100.00
56811;BME280;42691;47.234;27.494;2022-08-11T13:30:15;99750.31;;;26.16;100.00
56811;BME280;42691;47.234;27.494;2022-08-11T13:33:00;99746.28;;;26.28;100.00
56811;BME280;42691;47.234;27.494;2022-08-11T13:35:28;99741.88;;;25.96;100.00
56811;BME280;42691;47.234;27.494;2022-08-11T13:37:55;99733.44;;;25.76;100.00
56811;BME280;42691;47.234;27.494;2022-08-11T13:40:22;99743.19;;;26.00;100.00
56811;BME280;42691;47.234;27.494;2022-08-11T13:42:50;99743.38;;;25.99;100.00
56811;BME280;42691;47.234;27.494;2022-08-11T13:45:17;99722.22;;;26.05;100.00
56811;BME280;42691;47.234;27.494;2022-08-11T13:47:44;99735.00;;;26.18;100.00
56811;BME280;42691;47.234;27.494;2022-08-11T13:50:10;99729.97;;;26.23;100.00
56811;BME280;42691;47.234;27.494;2022-08-11T13:52:38;99741.97;;;26.19;100.00
56811;BME280;42691;47.234;27.494;2022-08-11T13:55:06;99729.81;;;26.16;100.00
56811;BME280;42691;47.234;27.494;2022-08-11T13:57:33;99718.88;;;26.03;100.00
56811;BME280;42691;47.234;27.494;2022-08-11T14:00:00;99731.50;;;26.17;100.00
56811;BME280;42691;47.234;27.494;2022-08-11T14:02:41;99728.38;;;26.06;100.00
56811;BME280;42691;47.234;27.494;2022-08-11T14:05:11;99726.19;;;26.01;100.00
56811;BME280;42691;47.234;27.494;2022-08-11T14:07:40;99714.91;;;25.91;100.00
56811;BME280;42691;47.234;27.494;2022-08-11T14:10:08;99724.22;;;26.03;100.00
56811;BME280;42691;47.234;27.494;2022-08-11T14:12:37;99727.25;;;25.84;100.00
56811;BME280;42691;47.234;27.494;2022-08-11T14:15:28;99729.09;;;25.83;100.00
56811;BME280;42691;47.234;27.494;2022-08-11T14:17:58;99709.94;;;25.88;100.00
56811;BME280;42691;47.234;27.494;2022-08-11T14:20:29;99711.38;;;25.99;100.00
56811;BME280;42691;47.234;27.494;2022-08-11T14:23:23;99724.84;;;26.13;100.00
56811;BME280;42691;47.234;27.494;2022-08-11T14:25:50;99714.22;;;25.97;100.00
56811;BME280;42691;47.234;27.494;2022-08-11T14:28:35;99715.22;;;26.04;100.00
56811;BME280;42691;47.234;27.494;2022-08-11T14:31:03;99720.22;;;26.07;100.00
56811;BME280;42691;47.234;27.494;2022-08-11T14:33:32;99716.25;;;25.87;100.00
56811;BME280;42691;47.234;27.494;2022-08-11T14:35:58;99716.88;;;26.05;100.00
56811;BME280;42691;47.234;27.494;2022-08-11T14:38:24;99716.84;;;26.13;100.00
56811;BME280;42691;47.234;27.494;2022-08-11T14:40:51;99703.81;;;26.18;100.00
56811;BME280;42691;47.234;27.494;2022-08-11T14:43:35;99716.44;;;26.41;100.00
56811;BME280;42691;47.234;27.494;2022-08-11T14:46:19;99702.81;;;26.20;100.00
56811;BME280;42691;47.234;27.494;2022-08-11T14:49:04;99709.28;;;26.25;100.00
56811;BME280;42691;47.234;27.494;2022-08-11T14:51:30;99694.56;;;26.06;100.00
56811;BME280;42691;47.234;27.494;2022-08-11T14:53:57;99705.78;;;26.25;100.00
56811;BME280;42691;47.234;27.494;2022-08-11T14:56:43;99691.06;;;26.06;100.00
56811;BME280;42691;47.234;27.494;2022-08-11T14:59:10;99680.00;;;26.17;100.00
56811;BME280;42691;47.234;27.494;2022-08-11T15:01:37;99700.47;;;26.25;100.00
56811;BME280;42691;47.234;27.494;2022-08-11T15:04:22;99696.28;;;25.83;100.00
56811;BME280;42691;47.234;27.494;2022-08-11T15:06:48;99706.84;;;26.15;100.00
56811;BME280;42691;47.234;27.494;2022-08-11T15:09:14;99689.31;;;26.21;100.00
56811;BME280;42691;47.234;27.494;2022-08-11T15:11:41;99680.22;;;25.99;100.00
56811;BME280;42691;47.234;27.494;2022-08-11T15:14:26;99689.78;;;26.25;100.00
56811;BME280;42691;47.234;27.494;2022-08-11T15:17:11;99677.56;;;26.07;100.00
56811;BME280;42691;47.234;27.494;2022-08-11T15:19:39;99688.59;;;25.88;100.00
56811;BME280;42691;47.234;27.494;2022-08-11T15:22:24;99683.00;;;26.14;100.00
56811;BME280;42691;47.234;27.494;2022-08-11T15:25:08;99671.59;;;25.89;100.00
56811;BME280;42691;47.234;27.494;2022-08-11T15:27:34;99674.41;;;26.04;100.00
56811;BME280;42691;47.234;27.494;2022-08-11T15:30:20;99679.91;;;26.02;100.00
56811;BME280;42691;47.234;27.494;2022-08-11T15:33:07;99678.72;;;26.05;100.00
56811;BME280;42691;47.234;27.494;2022-08-11T15:35:53;99669.72;;;26.06;100.00
56811;BME280;42691;47.234;27.494;2022-08-11T15:39:00;99675.28;;;25.88;100.00
56811;BME280;42691;47.234;27.494;2022-08-11T15:41:35;99675.66;;;25.77;100.00
56811;BME280;42691;47.234;27.494;2022-08-11T15:44:22;99675.09;;;25.90;100.00
56811;BME280;42691;47.234;27.494;2022-08-11T15:47:26;99679.81;;;25.79;100.00
56811;BME280;42691;47.234;27.494;2022-08-11T15:49:54;99671.09;;;25.94;100.00
56811;BME280;42691;47.234;27.494;2022-08-11T15:52:29;99673.94;;;25.92;100.00
56811;BME280;42691;47.234;27.494;2022-08-11T15:54:57;99673.34;;;25.66;100.00
56811;BME280;42691;47.234;27.494;2022-08-11T15:57:28;99669.63;;;25.83;100.00
56811;BME280;42691;47.234;27.494;2022-08-11T16:00:13;99669.34;;;25.70;100.00
56811;BME280;42691;47.234;27.494;2022-08-11T16:02:58;99668.31;;;25.63;100.00
56811;BME280;42691;47.234;27.494;2022-08-11T16:05:44;99646.84;;;25.64;100.00
56811;BME280;42691;47.234;27.494;2022-08-11T16:08:14;99656.34;;;25.59;100.00
56811;BME280;42691;47.234;27.494;2022-08-11T16:10:41;99664.66;;;25.64;100.00
56811;BME280;42691;47.234;27.494;2022-08-11T16:13:09;99662.31;;;25.61;100.00
56811;BME280;42691;47.234;27.494;2022-08-11T16:15:39;99659.41;;;25.39;100.00
56811;BME280;42691;47.234;27.494;2022-08-11T16:18:28;99654.06;;;25.39;100.00
56811;BME280;42691;47.234;27.494;2022-08-11T16:21:07;99667.88;;;25.27;100.00